sensor_id;sensor_type;location;lat;lon;timestamp;pressure;altitude;pressure_sealevel;temperature;humidity
72285;BME280;60220;53.552;10.092;2023-02-22T00:01:09;101448.72;;;10.13;84.08
72285;BME280;60220;53.552;10.092;2023-02-22T00:03:49;101449.63;;;10.16;83.83
72285;BME280;60220;53.552;10.092;2023-02-22T00:06:18;101444.38;;;10.33;83.54
72285;BME280;60220;53.552;10.092;2023-02-22T00:08:47;101432.09;;;9.83;83.55
72285;BME280;60220;53.552;10.092;2023-02-22T00:11:15;101434.72;;;9.92;83.24
72285;BME280;60220;53.552;10.092;2023-02-22T00:13:42;101435.59;;;10.07;82.57
72285;BME280;60220;53.552;10.092;2023-02-22T00:16:13;101427.78;;;10.25;82.49
72285;BME280;60220;53.552;10.092;2023-02-22T00:18:42;101432.97;;;10.04;82.74
72285;BME280;60220;53.552;10.092;2023-02-22T00:21:12;101427.72;;;9.79;84.06
72285;BME280;60220;53.552;10.092;2023-02-22T00:23:43;101429.44;;;9.67;83.58
72285;BME280;60220;53.552;10.092;2023-02-22T00:26:12;101428.59;;;9.66;84.68
72285;BME280;60220;53.552;10.092;2023-02-22T00:28:45;101424.16;;;9.42;84.23
72285;BME280;60220;53.552;10.092;2023-02-22T00:31:12;101432.00;;;9.26;85.72
72285;BME280;60220;53.552;10.092;2023-02-22T00:33:40;101429.41;;;9.42;85.60
72285;BME280;60220;53.552;10.092;2023-02-22T00:36:08;101426.84;;;9.61;84.41
72285;BME280;60220;53.552;10.092;2023-02-22T00:38:38;101426.00;;;10.22;82.37
72285;BME280;60220;53.552;10.092;2023-02-22T00:41:05;101425.97;;;9.98;82.54
72285;BME280;60220;53.552;10.092;2023-02-22T00:43:32;101434.59;;;9.26;84.23
72285;BME280;60220;53.552;10.092;2023-02-22T00:46:02;101424.97;;;9.28;84.89
72285;BME280;60220;53.552;10.092;2023-02-22T00:48:28;101429.41;;;9.41;84.61
72285;BME280;60220;53.552;10.092;2023-02-22T00:50:55;101428.59;;;9.69;83.42
72285;BME280;60220;53.552;10.092;2023-02-22T00:53:22;101434.69;;;9.73;83.42
72285;BME280;60220;53.552;10.092;2023-02-22T00:55:51;101434.63;;;9.38;84.50
72285;BME280;60220;53.552;10.092;2023-02-22T00:58:20;101426.81;;;9.58;84.61
72285;BME280;60220;53.552;10.092;2023-02-22T01:00:49;101429.47;;;9.70;84.91
72285;BME280;60220;53.552;10.092;2023-02-22T01:03:18;101433.00;;;10.05;83.82
72285;BME280;60220;53.552;10.092;2023-02-22T01:05:45;101421.59;;;9.77;84.11
72285;BME280;60220;53.552;10.092;2023-02-22T01:08:14;101424.03;;;9.07;85.97
72285;BME280;60220;53.552;10.092;2023-02-22T01:10:40;101426.84;;;9.56;85.79
72285;BME280;60220;53.552;10.092;2023-02-22T01:13:09;101429.47;;;9.79;84.74
72285;BME280;60220;53.552;10.092;2023-02-22T01:15:38;101422.50;;;9.94;84.42
72285;BME280;60220;53.552;10.092;2023-02-22T01:18:05;101424.19;;;9.55;84.17
72285;BME280;60220;53.552;10.092;2023-02-22T01:20:32;101418.97;;;9.65;84.02
72285;BME280;60220;53.552;10.092;2023-02-22T01:23:00;101422.50;;;9.90;83.47
72285;BME280;60220;53.552;10.092;2023-02-22T01:25:31;101420.69;;;9.57;84.77
72285;BME280;60220;53.552;10.092;2023-02-22T01:27:59;101423.22;;;9.21;85.90
72285;BME280;60220;53.552;10.092;2023-02-22T01:30:29;101420.59;;;9.19;85.71
72285;BME280;60220;53.552;10.092;2023-02-22T01:32:57;101422.31;;;9.13;86.79
72285;BME280;60220;53.552;10.092;2023-02-22T01:35:27;101419.56;;;8.81;87.99
72285;BME280;60220;53.552;10.092;2023-02-22T01:37:54;101419.69;;;9.10;88.47
72285;BME280;60220;53.552;10.092;2023-02-22T01:40:24;101412.63;;;8.90;88.99
72285;BME280;60220;53.552;10.092;2023-02-22T01:42:53;101410.91;;;8.98;89.03
72285;BME280;60220;53.552;10.092;2023-02-22T01:45:52;101415.97;;;8.62;89.72
72285;BME280;60220;53.552;10.092;2023-02-22T01:48:23;101404.78;;;8.93;89.96
72285;BME280;60220;53.552;10.092;2023-02-22T01:50:54;101410.69;;;8.50;90.57
72285;BME280;60220;53.552;10.092;2023-02-22T01:53:24;101405.34;;;8.32;92.26
72285;BME280;60220;53.552;10.092;2023-02-22T01:55:53;101406.00;;;8.09;94.03
72285;BME280;60220;53.552;10.092;2023-02-22T01:58:23;101404.13;;;7.95;94.17
72285;BME280;60220;53.552;10.092;2023-02-22T02:00:52;101393.88;;;8.22;93.72
72285;BME280;60220;53.552;10.092;2023-02-22T02:03:22;101396.47;;;8.17;93.64
72285;BME280;60220;53.552;10.092;2023-02-22T02:05:53;101396.38;;;8.05;93.47
72285;BME280;60220;53.552;10.092;2023-02-22T02:08:28;101391.41;;;8.39;94.42
72285;BME280;60220;53.552;10.092;2023-02-22T02:10:59;101401.75;;;8.23;92.83
72285;BME280;60220;53.552;10.092;2023-02-22T02:13:27;101389.00;;;8.71;92.91
72285;BME280;60220;53.552;10.092;2023-02-22T02:15:55;101389.06;;;8.90;91.62
72285;BME280;60220;53.552;10.092;2023-02-22T02:18:26;101388.09;;;8.70;91.13
72285;BME280;60220;53.552;10.092;2023-02-22T02:21:11;101383.81;;;8.87;90.17
72285;BME280;60220;53.552;10.092;2023-02-22T02:24:02;101384.69;;;8.89;90.30
72285;BME280;60220;53.552;10.092;2023-02-22T02:26:56;101377.72;;;8.88;88.97
72285;BME280;60220;53.552;10.092;2023-02-22T02:29:52;101386.41;;;8.84;89.67
72285;BME280;60220;53.552;10.092;2023-02-22T02:32:42;101376.75;;;8.68;90.06
72285;BME280;60220;53.552;10.092;2023-02-22T02:35:14;101381.13;;;8.69;89.75
72285;BME280;60220;53.552;10.092;2023-02-22T02:37:50;101373.41;;;8.99;88.57
72285;BME280;60220;53.552;10.092;2023-02-22T02:40:25;101386.53;;;9.15;88.18
72285;BME280;60220;53.552;10.092;2023-02-22T02:43:02;101380.28;;;8.78;88.30
72285;BME280;60220;53.552;10.092;2023-02-22T02:45:35;101382.75;;;8.46;89.02
72285;BME280;60220;53.552;10.092;2023-02-22T02:48:08;101370.44;;;8.33;90.69
72285;BME280;60220;53.552;10.092;2023-02-22T02:50:41;101371.47;;;8.62;90.52
72285;BME280;60220;53.552;10.092;2023-02-22T02:53:10;101367.84;;;8.37;90.46
72285;BME280;60220;53.552;10.092;2023-02-22T02:55:36;101368.94;;;8.77;89.95
72285;BME280;60220;53.552;10.092;2023-02-22T02:58:05;101365.50;;;8.90;89.14
72285;BME280;60220;53.552;10.092;2023-02-22T03:00:35;101358.56;;;9.01;88.29
72285;BME280;60220;53.552;10.092;2023-02-22T03:03:20;101355.84;;;8.82;88.66
72285;BME280;60220;53.552;10.092;2023-02-22T03:06:03;101351.63;;;9.20;87.40
72285;BME280;60220;53.552;10.092;2023-02-22T03:08:40;101347.91;;;8.56;88.02
72285;BME280;60220;53.552;10.092;2023-02-22T03:11:09;101347.16;;;8.86;88.55
72285;BME280;60220;53.552;10.092;2023-02-22T03:13:47;101348.09;;;9.01;88.65
72285;BME280;60220;53.552;10.092;2023-02-22T03:16:20;101343.75;;;9.19;87.51
72285;BME280;60220;53.552;10.092;2023-02-22T03:18:56;101342.00;;;9.22;87.66
72285;BME280;60220;53.552;10.092;2023-02-22T03:21:41;101343.75;;;9.13;86.59
72285;BME280;60220;53.552;10.092;2023-02-22T03:24:16;101340.28;;;9.26;86.89
72285;BME280;60220;53.552;10.092;2023-02-22T03:26:47;101335.94;;;9.25;86.95
72285;BME280;60220;53.552;10.092;2023-02-22T03:29:21;101331.53;;;9.10;88.42
72285;BME280;60220;53.552;10.092;2023-02-22T03:31:55;101335.81;;;8.85;88.43
72285;BME280;60220;53.552;10.092;2023-02-22T03:34:35;101328.84;;;8.81;87.42
72285;BME280;60220;53.552;10.092;2023-02-22T03:37:10;101335.88;;;9.13;87.27
72285;BME280;60220;53.552;10.092;2023-02-22T03:39:40;101330.63;;;8.91;87.08
72285;BME280;60220;53.552;10.092;2023-02-22T03:42:12;101335.06;;;9.33;87.32
72285;BME280;60220;53.552;10.092;2023-02-22T03:44:42;101328.06;;;9.29;86.62
72285;BME280;60220;53.552;10.092;2023-02-22T03:47:16;101330.69;;;9.28;85.63
72285;BME280;60220;53.552;10.092;2023-02-22T03:49:50;101330.59;;;8.94;86.98
72285;BME280;60220;53.552;10.092;2023-02-22T03:52:17;101335.00;;;9.01;86.79
72285;BME280;60220;53.552;10.092;2023-02-22T03:54:47;101333.28;;;9.10;86.54
72285;BME280;60220;53.552;10.092;2023-02-22T03:57:23;101332.41;;;9.17;86.90
72285;BME280;60220;53.552;10.092;2023-02-22T03:59:53;101329.75;;;8.95;86.53
72285;BME280;60220;53.552;10.092;2023-02-22T04:02:20;101329.78;;;9.04;86.50
72285;BME280;60220;53.552;10.092;2023-02-22T04:04:49;101333.34;;;9.60;85.80
72285;BME280;60220;53.552;10.092;2023-02-22T04:07:21;101329.81;;;9.27;86.27
72285;BME280;60220;53.552;10.092;2023-02-22T04:09:52;101338.50;;;9.05;87.40
72285;BME280;60220;53.552;10.092;2023-02-22T04:12:21;101335.84;;;8.97;87.86
72285;BME280;60220;53.552;10.092;2023-02-22T04:14:48;101339.41;;;9.27;87.97
72285;BME280;60220;53.552;10.092;2023-02-22T04:17:15;101331.50;;;9.01;87.83
72285;BME280;60220;53.552;10.092;2023-02-22T04:19:42;101333.25;;;9.05;88.64
72285;BME280;60220;53.552;10.092;2023-02-22T04:22:16;101333.31;;;9.47;87.86
72285;BME280;60220;53.552;10.092;2023-02-22T04:24:45;101341.09;;;9.03;88.34
72285;BME280;60220;53.552;10.092;2023-02-22T04:27:13;101337.66;;;9.20;88.91
72285;BME280;60220;53.552;10.092;2023-02-22T04:29:42;101345.44;;;8.94;88.83
72285;BME280;60220;53.552;10.092;2023-02-22T04:32:11;101343.78;;;9.29;88.44
72285;BME280;60220;53.552;10.092;2023-02-22T04:34:39;101342.03;;;9.27;87.71
72285;BME280;60220;53.552;10.092;2023-02-22T04:37:08;101334.19;;;9.30;86.91
72285;BME280;60220;53.552;10.092;2023-02-22T04:39:36;101334.13;;;9.08;87.41
72285;BME280;60220;53.552;10.092;2023-02-22T04:42:03;101334.19;;;9.39;87.89
72285;BME280;60220;53.552;10.092;2023-02-22T04:44:31;101331.56;;;9.28;87.59
72285;BME280;60220;53.552;10.092;2023-02-22T04:46:58;101337.69;;;9.41;88.12
72285;BME280;60220;53.552;10.092;2023-02-22T04:49:25;101335.09;;;9.74;86.43
72285;BME280;60220;53.552;10.092;2023-02-22T04:51:51;101331.56;;;9.57;85.84
72285;BME280;60220;53.552;10.092;2023-02-22T04:54:23;101332.47;;;9.41;85.58
72285;BME280;60220;53.552;10.092;2023-02-22T04:56:53;101328.94;;;9.21;86.91
72285;BME280;60220;53.552;10.092;2023-02-22T04:59:25;101322.84;;;9.73;85.94
72285;BME280;60220;53.552;10.092;2023-02-22T05:01:52;101320.22;;;9.44;86.30
72285;BME280;60220;53.552;10.092;2023-02-22T05:04:19;101315.84;;;9.30;86.52
72285;BME280;60220;53.552;10.092;2023-02-22T05:06:47;101320.19;;;9.23;87.55
72285;BME280;60220;53.552;10.092;2023-02-22T05:09:16;101319.31;;;9.20;88.10
72285;BME280;60220;53.552;10.092;2023-02-22T05:11:43;101325.47;;;9.52;88.89
72285;BME280;60220;53.552;10.092;2023-02-22T05:14:11;101316.72;;;9.62;87.01
72285;BME280;60220;53.552;10.092;2023-02-22T05:16:39;101315.88;;;9.69;86.81
72285;BME280;60220;53.552;10.092;2023-02-22T05:19:09;101325.47;;;9.82;86.36
72285;BME280;60220;53.552;10.092;2023-02-22T05:21:35;101321.97;;;9.26;86.60
72285;BME280;60220;53.552;10.092;2023-02-22T05:24:07;101323.59;;;8.80;87.57
72285;BME280;60220;53.552;10.092;2023-02-22T05:26:35;101316.72;;;9.53;87.82
72285;BME280;60220;53.552;10.092;2023-02-22T05:29:05;101319.34;;;10.05;86.36
72285;BME280;60220;53.552;10.092;2023-02-22T05:31:33;101311.47;;;9.77;85.66
72285;BME280;60220;53.552;10.092;2023-02-22T05:34:00;101316.72;;;9.68;86.41
72285;BME280;60220;53.552;10.092;2023-02-22T05:36:27;101328.97;;;9.48;86.30
72285;BME280;60220;53.552;10.092;2023-02-22T05:38:53;101324.59;;;9.89;86.79
72285;BME280;60220;53.552;10.092;2023-02-22T05:41:20;101317.53;;;9.00;87.47
72285;BME280;60220;53.552;10.092;2023-02-22T05:43:47;101322.84;;;9.47;87.62
72285;BME280;60220;53.552;10.092;2023-02-22T05:46:14;101327.19;;;9.51;87.17
72285;BME280;60220;53.552;10.092;2023-02-22T05:48:42;101321.97;;;9.41;88.47
72285;BME280;60220;53.552;10.092;2023-02-22T05:51:08;101326.31;;;9.24;87.74
72285;BME280;60220;53.552;10.092;2023-02-22T05:53:37;101321.97;;;9.26;88.13
72285;BME280;60220;53.552;10.092;2023-02-22T05:56:04;101321.94;;;9.11;88.29
72285;BME280;60220;53.552;10.092;2023-02-22T05:58:31;101315.84;;;9.21;88.00
72285;BME280;60220;53.552;10.092;2023-02-22T06:00:58;101315.00;;;9.44;87.95
72285;BME280;60220;53.552;10.092;2023-02-22T06:03:24;101317.56;;;9.10;88.67
72285;BME280;60220;53.552;10.092;2023-02-22T06:05:53;101307.94;;;9.12;88.93
72285;BME280;60220;53.552;10.092;2023-02-22T06:08:22;101311.44;;;9.04;90.02
72285;BME280;60220;53.552;10.092;2023-02-22T06:10:48;101309.63;;;8.76;89.88
72285;BME280;60220;53.552;10.092;2023-02-22T06:13:15;101316.69;;;9.17;90.08
72285;BME280;60220;53.552;10.092;2023-02-22T06:15:44;101317.56;;;9.16;90.56
72285;BME280;60220;53.552;10.092;2023-02-22T06:18:11;101314.97;;;9.26;89.63
72285;BME280;60220;53.552;10.092;2023-02-22T06:20:38;101316.72;;;9.35;89.34
72285;BME280;60220;53.552;10.092;2023-02-22T06:23:06;101322.84;;;9.44;89.13
72285;BME280;60220;53.552;10.092;2023-02-22T06:25:32;101317.59;;;9.26;88.73
72285;BME280;60220;53.552;10.092;2023-02-22T06:28:01;101318.50;;;9.60;88.76
72285;BME280;60220;53.552;10.092;2023-02-22T06:30:29;101320.16;;;9.03;89.84
72285;BME280;60220;53.552;10.092;2023-02-22T06:32:56;101321.97;;;9.44;89.03
72285;BME280;60220;53.552;10.092;2023-02-22T06:35:25;101324.50;;;8.89;89.91
72285;BME280;60220;53.552;10.092;2023-02-22T06:37:52;101320.19;;;9.16;89.88
72285;BME280;60220;53.552;10.092;2023-02-22T06:40:20;101331.47;;;8.93;89.56
72285;BME280;60220;53.552;10.092;2023-02-22T06:42:47;101326.31;;;9.16;90.48
72285;BME280;60220;53.552;10.092;2023-02-22T06:45:15;101319.28;;;8.95;89.79
72285;BME280;60220;53.552;10.092;2023-02-22T06:47:42;101323.59;;;8.84;90.41
72285;BME280;60220;53.552;10.092;2023-02-22T06:50:18;101321.00;;;8.93;91.01
72285;BME280;60220;53.552;10.092;2023-02-22T06:52:45;101325.44;;;9.34;90.11
72285;BME280;60220;53.552;10.092;2023-02-22T06:55:21;101325.44;;;9.28;89.79
72285;BME280;60220;53.552;10.092;2023-02-22T06:57:48;101328.06;;;9.32;89.43
72285;BME280;60220;53.552;10.092;2023-02-22T07:00:16;101324.59;;;9.41;88.54
72285;BME280;60220;53.552;10.092;2023-02-22T07:02:43;101320.97;;;8.87;90.42
72285;BME280;60220;53.552;10.092;2023-02-22T07:05:10;101324.53;;;9.06;90.32
72285;BME280;60220;53.552;10.092;2023-02-22T07:07:37;101321.06;;;9.33;89.71
72285;BME280;60220;53.552;10.092;2023-02-22T07:10:05;101328.94;;;9.19;90.65
72285;BME280;60220;53.552;10.092;2023-02-22T07:12:34;101323.66;;;9.18;89.48
72285;BME280;60220;53.552;10.092;2023-02-22T07:15:00;101328.84;;;8.84;90.94
72285;BME280;60220;53.552;10.092;2023-02-22T07:17:27;101330.59;;;8.97;91.21
72285;BME280;60220;53.552;10.092;2023-02-22T07:19:54;101326.25;;;9.02;90.80
72285;BME280;60220;53.552;10.092;2023-02-22T07:22:20;101322.75;;;8.99;90.41
72285;BME280;60220;53.552;10.092;2023-02-22T07:24:47;101332.25;;;8.65;90.74
72285;BME280;60220;53.552;10.092;2023-02-22T07:27:14;101326.28;;;9.08;91.26
72285;BME280;60220;53.552;10.092;2023-02-22T07:29:43;101327.19;;;9.20;90.08
72285;BME280;60220;53.552;10.092;2023-02-22T07:32:11;101321.88;;;8.94;90.07
72285;BME280;60220;53.552;10.092;2023-02-22T07:34:37;101322.00;;;9.56;89.38
72285;BME280;60220;53.552;10.092;2023-02-22T07:37:04;101322.81;;;9.22;89.57
72285;BME280;60220;53.552;10.092;2023-02-22T07:39:30;101320.22;;;9.31;89.58
72285;BME280;60220;53.552;10.092;2023-02-22T07:41:58;101316.66;;;9.00;89.50
72285;BME280;60220;53.552;10.092;2023-02-22T07:44:25;101321.03;;;9.05;89.97
72285;BME280;60220;53.552;10.092;2023-02-22T07:46:53;101316.69;;;9.23;90.26
72285;BME280;60220;53.552;10.092;2023-02-22T07:49:20;101327.94;;;8.82;91.34
72285;BME280;60220;53.552;10.092;2023-02-22T07:51:47;101321.00;;;8.86;90.91
72285;BME280;60220;53.552;10.092;2023-02-22T07:54:13;101313.09;;;8.78;90.74
72285;BME280;60220;53.552;10.092;2023-02-22T07:56:44;101317.44;;;8.66;91.54
72285;BME280;60220;53.552;10.092;2023-02-22T07:59:10;101313.06;;;8.64;92.42
72285;BME280;60220;53.552;10.092;2023-02-22T08:01:37;101315.56;;;8.43;93.17
72285;BME280;60220;53.552;10.092;2023-02-22T08:04:05;101304.31;;;8.67;92.93
72285;BME280;60220;53.552;10.092;2023-02-22T08:06:33;101305.19;;;8.55;93.20
72285;BME280;60220;53.552;10.092;2023-02-22T08:08:59;101299.97;;;8.61;93.17
72285;BME280;60220;53.552;10.092;2023-02-22T08:11:26;101311.47;;;9.23;91.84
72285;BME280;60220;53.552;10.092;2023-02-22T08:13:52;101301.84;;;9.00;91.23
72285;BME280;60220;53.552;10.092;2023-02-22T08:16:21;101298.38;;;9.51;90.92
72285;BME280;60220;53.552;10.092;2023-02-22T08:18:48;101290.50;;;9.47;90.67
72285;BME280;60220;53.552;10.092;2023-02-22T08:21:16;101288.66;;;8.82;91.67
72285;BME280;60220;53.552;10.092;2023-02-22T08:23:43;101293.09;;;9.09;91.33
72285;BME280;60220;53.552;10.092;2023-02-22T08:26:10;101289.56;;;8.84;91.68
72285;BME280;60220;53.552;10.092;2023-02-22T08:28:40;101294.00;;;9.28;91.30
72285;BME280;60220;53.552;10.092;2023-02-22T08:31:06;101290.53;;;9.71;89.39
72285;BME280;60220;53.552;10.092;2023-02-22T08:33:38;101287.06;;;9.51;89.58
72285;BME280;60220;53.552;10.092;2023-02-22T08:36:10;101291.41;;;9.55;89.59
72285;BME280;60220;53.552;10.092;2023-02-22T08:38:38;101287.84;;;9.00;90.49
72285;BME280;60220;53.552;10.092;2023-02-22T08:41:05;101288.72;;;8.97;90.80
72285;BME280;60220;53.552;10.092;2023-02-22T08:43:32;101288.66;;;8.78;91.11
72285;BME280;60220;53.552;10.092;2023-02-22T08:45:58;101283.38;;;8.62;92.28
72285;BME280;60220;53.552;10.092;2023-02-22T08:48:25;101285.16;;;8.77;93.03
72285;BME280;60220;53.552;10.092;2023-02-22T08:50:52;101286.06;;;8.79;92.76
72285;BME280;60220;53.552;10.092;2023-02-22T08:53:21;101285.22;;;8.95;92.90
72285;BME280;60220;53.552;10.092;2023-02-22T08:55:49;101290.50;;;9.17;91.48
72285;BME280;60220;53.552;10.092;2023-02-22T08:58:18;101285.28;;;9.38;91.17
72285;BME280;60220;53.552;10.092;2023-02-22T09:00:45;101287.91;;;9.53;90.66
72285;BME280;60220;53.552;10.092;2023-02-22T09:03:12;101285.28;;;9.24;89.78
72285;BME280;60220;53.552;10.092;2023-02-22T09:05:42;101287.91;;;9.30;89.41
72285;BME280;60220;53.552;10.092;2023-02-22T09:08:09;101279.19;;;9.51;89.56
72285;BME280;60220;53.552;10.092;2023-02-22T09:10:37;101289.59;;;9.12;91.06
72285;BME280;60220;53.552;10.092;2023-02-22T09:13:05;101281.69;;;8.87;91.23
72285;BME280;60220;53.552;10.092;2023-02-22T09:15:33;101280.00;;;8.98;91.33
72285;BME280;60220;53.552;10.092;2023-02-22T09:18:02;101277.28;;;8.60;92.05
72285;BME280;60220;53.552;10.092;2023-02-22T09:20:31;101279.91;;;8.68;92.97
72285;BME280;60220;53.552;10.092;2023-02-22T09:23:00;101285.09;;;8.54;93.03
72285;BME280;60220;53.552;10.092;2023-02-22T09:25:27;101297.28;;;8.42;93.41
72285;BME280;60220;53.552;10.092;2023-02-22T09:27:55;101292.09;;;8.63;92.88
72285;BME280;60220;53.552;10.092;2023-02-22T09:30:26;101294.78;;;8.84;92.39
72285;BME280;60220;53.552;10.092;2023-02-22T09:33:00;101293.13;;;9.11;91.46
72285;BME280;60220;53.552;10.092;2023-02-22T09:35:27;101288.72;;;8.90;91.45
72285;BME280;60220;53.552;10.092;2023-02-22T09:37:54;101284.28;;;8.68;92.11
72285;BME280;60220;53.552;10.092;2023-02-22T09:40:21;101290.31;;;8.53;93.04
72285;BME280;60220;53.552;10.092;2023-02-22T09:43:17;101287.69;;;8.50;92.87
72285;BME280;60220;53.552;10.092;2023-02-22T09:45:56;101278.16;;;8.61;93.56
72285;BME280;60220;53.552;10.092;2023-02-22T09:48:29;101279.81;;;8.41;93.60
72285;BME280;60220;53.552;10.092;2023-02-22T09:51:02;101281.66;;;8.66;94.21
72285;BME280;60220;53.552;10.092;2023-02-22T09:53:39;101279.13;;;8.90;92.61
72285;BME280;60220;53.552;10.092;2023-02-22T09:56:09;101279.06;;;8.78;92.45
72285;BME280;60220;53.552;10.092;2023-02-22T09:58:38;101274.72;;;8.71;93.07
72285;BME280;60220;53.552;10.092;2023-02-22T10:01:17;101275.66;;;9.05;91.45
72285;BME280;60220;53.552;10.092;2023-02-22T10:03:51;101274.81;;;9.41;90.25
72285;BME280;60220;53.552;10.092;2023-02-22T10:06:22;101277.41;;;9.15;90.42
72285;BME280;60220;53.552;10.092;2023-02-22T10:08:52;101274.81;;;9.45;89.62
72285;BME280;60220;53.552;10.092;2023-02-22T10:11:30;101273.06;;;9.43;88.94
72285;BME280;60220;53.552;10.092;2023-02-22T10:14:21;101269.56;;;9.53;87.90
72285;BME280;60220;53.552;10.092;2023-02-22T10:16:57;101268.69;;;9.28;87.77
72285;BME280;60220;53.552;10.092;2023-02-22T10:19:35;101260.78;;;9.02;88.05
72285;BME280;60220;53.552;10.092;2023-02-22T10:22:23;101259.94;;;9.17;88.30
72285;BME280;60220;53.552;10.092;2023-02-22T10:24:57;101249.47;;;9.22;88.77
72285;BME280;60220;53.552;10.092;2023-02-22T10:27:31;101245.97;;;9.71;87.05
72285;BME280;60220;53.552;10.092;2023-02-22T10:30:03;101245.13;;;9.51;86.58
72285;BME280;60220;53.552;10.092;2023-02-22T10:32:40;101251.22;;;9.58;86.43
72285;BME280;60220;53.552;10.092;2023-02-22T10:35:19;101246.81;;;9.67;85.49
72285;BME280;60220;53.552;10.092;2023-02-22T10:37:50;101252.09;;;9.70;85.26
72285;BME280;60220;53.552;10.092;2023-02-22T10:40:19;101248.63;;;9.45;85.98
72285;BME280;60220;53.552;10.092;2023-02-22T10:42:47;101246.00;;;9.21;86.18
72285;BME280;60220;53.552;10.092;2023-02-22T10:45:24;101242.47;;;9.13;87.04
72285;BME280;60220;53.552;10.092;2023-02-22T10:47:54;101238.13;;;9.50;85.58
72285;BME280;60220;53.552;10.092;2023-02-22T10:50:23;101231.13;;;9.37;86.30
72285;BME280;60220;53.552;10.092;2023-02-22T10:52:51;101226.75;;;9.65;85.43
72285;BME280;60220;53.552;10.092;2023-02-22T10:55:19;101227.31;;;10.56;83.53
72285;BME280;60220;53.552;10.092;2023-02-22T10:57:50;101219.56;;;10.32;81.63
72285;BME280;60220;53.552;10.092;2023-02-22T11:00:22;101216.72;;;10.81;80.86
72285;BME280;60220;53.552;10.092;2023-02-22T11:02:56;101204.78;;;10.20;80.78
72285;BME280;60220;53.552;10.092;2023-02-22T11:05:31;101202.06;;;10.39;81.00
72285;BME280;60220;53.552;10.092;2023-02-22T11:08:28;101194.25;;;10.31;80.61
72285;BME280;60220;53.552;10.092;2023-02-22T11:11:00;101199.34;;;10.54;80.08
72285;BME280;60220;53.552;10.092;2023-02-22T11:13:29;101193.91;;;10.86;79.59
72285;BME280;60220;53.552;10.092;2023-02-22T11:15:59;101189.34;;;11.07;78.63
72285;BME280;60220;53.552;10.092;2023-02-22T11:18:32;101181.25;;;11.35;77.64
72285;BME280;60220;53.552;10.092;2023-02-22T11:21:02;101180.91;;;11.66;76.00
72285;BME280;60220;53.552;10.092;2023-02-22T11:23:29;101185.16;;;10.84;77.41
72285;BME280;60220;53.552;10.092;2023-02-22T11:26:03;101172.72;;;11.10;77.42
72285;BME280;60220;53.552;10.092;2023-02-22T11:28:31;101166.59;;;11.08;77.30
72285;BME280;60220;53.552;10.092;2023-02-22T11:31:10;101162.56;;;11.62;75.98
72285;BME280;60220;53.552;10.092;2023-02-22T11:33:47;101149.03;;;12.00;73.95
72285;BME280;60220;53.552;10.092;2023-02-22T11:36:30;101144.97;;;11.70;73.62
72285;BME280;60220;53.552;10.092;2023-02-22T11:38:57;101149.50;;;11.51;73.93
72285;BME280;60220;53.552;10.092;2023-02-22T11:41:26;101140.06;;;11.34;73.56
72285;BME280;60220;53.552;10.092;2023-02-22T11:43:53;101135.63;;;11.39;73.59
72285;BME280;60220;53.552;10.092;2023-02-22T11:46:39;101132.47;;;11.05;75.12
72285;BME280;60220;53.552;10.092;2023-02-22T11:49:11;101136.75;;;11.15;74.94
72285;BME280;60220;53.552;10.092;2023-02-22T11:52:00;101127.38;;;10.84;74.00
72285;BME280;60220;53.552;10.092;2023-02-22T11:54:41;101128.75;;;11.27;72.77
72285;BME280;60220;53.552;10.092;2023-02-22T11:57:18;101116.53;;;11.21;72.82
72285;BME280;60220;53.552;10.092;2023-02-22T12:00:01;101126.06;;;11.35;73.16
72285;BME280;60220;53.552;10.092;2023-02-22T12:02:53;101125.44;;;11.07;72.82
72285;BME280;60220;53.552;10.092;2023-02-22T12:05:44;101123.44;;;11.35;72.91
72285;BME280;60220;53.552;10.092;2023-02-22T12:08:31;101115.84;;;11.03;74.43
72285;BME280;60220;53.552;10.092;2023-02-22T12:11:07;101118.28;;;11.24;73.58
72285;BME280;60220;53.552;10.092;2023-02-22T12:13:46;101114.22;;;10.90;73.42
72285;BME280;60220;53.552;10.092;2023-02-22T12:16:23;101115.09;;;10.89;74.70
72285;BME280;60220;53.552;10.092;2023-02-22T12:19:06;101108.69;;;11.18;72.94
72285;BME280;60220;53.552;10.092;2023-02-22T12:21:39;101105.91;;;11.32;72.17
72285;BME280;60220;53.552;10.092;2023-02-22T12:24:10;101109.31;;;11.45;72.64
72285;BME280;60220;53.552;10.092;2023-02-22T12:26:39;101097.78;;;11.55;71.35
72285;BME280;60220;53.552;10.092;2023-02-22T12:29:12;101093.75;;;11.22;71.67
72285;BME280;60220;53.552;10.092;2023-02-22T12:31:41;101100.56;;;11.41;72.29
72285;BME280;60220;53.552;10.092;2023-02-22T12:34:15;101095.44;;;11.28;71.97
72285;BME280;60220;53.552;10.092;2023-02-22T12:36:57;101093.63;;;11.34;72.47
72285;BME280;60220;53.552;10.092;2023-02-22T12:39:37;101094.41;;;11.44;72.30
72285;BME280;60220;53.552;10.092;2023-02-22T12:42:11;101089.66;;;11.78;70.81
72285;BME280;60220;53.552;10.092;2023-02-22T12:44:44;101082.31;;;12.04;69.67
72285;BME280;60220;53.552;10.092;2023-02-22T12:47:15;101081.56;;;11.93;70.64
72285;BME280;60220;53.552;10.092;2023-02-22T12:49:48;101081.75;;;11.78;70.33
72285;BME280;60220;53.552;10.092;2023-02-22T12:52:31;101081.56;;;11.93;71.01
72285;BME280;60220;53.552;10.092;2023-02-22T12:55:03;101079.41;;;11.53;72.43
72285;BME280;60220;53.552;10.092;2023-02-22T12:57:39;101082.25;;;11.34;72.60
72285;BME280;60220;53.552;10.092;2023-02-22T13:00:15;101086.75;;;11.99;71.29
72285;BME280;60220;53.552;10.092;2023-02-22T13:02:50;101079.69;;;11.29;71.96
72285;BME280;60220;53.552;10.092;2023-02-22T13:05:21;101082.31;;;11.28;72.91
72285;BME280;60220;53.552;10.092;2023-02-22T13:07:56;101080.03;;;10.94;73.53